Time;durP1;ratioP1;P1;durP2;ratioP2;P2;SDS_P1;SDS_P2;PMS_P1;PMS_P2;Temp;Humidity;BMP_temperature;BMP_pressure;BME280_temperature;BME280_humidity;BME280_pressure;Samples;Min_cycle;Max_cycle;Signal;HPM_P1;HPM_P2
2022/03/27 00:00:16;;;;;;;23.10;12.13;;;;;;;;;;5041026;28;20403;-66
2022/03/27 00:02:44;;;;;;;24.00;12.75;;;;;;;;;;5033007;28;20174;-66
2022/03/27 00:05:11;;;;;;;23.67;12.85;;;;;;;;;;5046144;28;20207;-66
2022/03/27 00:07:37;;;;;;;21.90;12.93;;;;;;;;;;5046058;28;20285;-66
2022/03/27 00:10:03;;;;;;;21.90;11.98;;;;;;;;;;5043010;28;20264;-66
2022/03/27 00:12:28;;;;;;;23.50;12.60;;;;;;;;;;5045182;28;20549;-66
2022/03/27 00:14:54;;;;;;;21.80;12.40;;;;;;;;;;5040893;28;20585;-66
2022/03/27 00:17:19;;;;;;;23.98;11.98;;;;;;;;;;5047355;28;20193;-66
2022/03/27 00:19:44;;;;;;;23.08;11.07;;;;;;;;;;5047881;28;20629;-66
2022/03/27 00:22:10;;;;;;;22.20;12.05;;;;;;;;;;5040941;28;20177;-66
2022/03/27 00:24:35;;;;;;;24.35;11.98;;;;;;;;;;5044454;28;20182;-66
2022/03/27 00:27:01;;;;;;;19.77;10.63;;;;;;;;;;5038469;28;20206;-66
2022/03/27 00:29:26;;;;;;;21.02;10.68;;;;;;;;;;5038289;28;20336;-67
2022/03/27 00:31:51;;;;;;;20.77;10.77;;;;;;;;;;5017941;28;20704;-67
2022/03/27 00:34:19;;;;;;;20.67;10.65;;;;;;;;;;5029064;28;20266;-66
2022/03/27 00:36:45;;;;;;;16.73;9.60;;;;;;;;;;5034749;28;20653;-67
2022/03/27 00:39:10;;;;;;;22.83;10.55;;;;;;;;;;5041193;28;20610;-66
2022/03/27 00:41:36;;;;;;;20.10;10.48;;;;;;;;;;5031331;28;20213;-67
2022/03/27 00:44:01;;;;;;;20.58;11.15;;;;;;;;;;5029471;28;20189;-66
2022/03/27 00:46:27;;;;;;;21.00;10.48;;;;;;;;;;5028578;28;20820;-66
2022/03/27 00:48:52;;;;;;;22.83;11.13;;;;;;;;;;5026476;28;20194;-67
2022/03/27 00:51:18;;;;;;;21.77;11.13;;;;;;;;;;5032225;28;20178;-67
2022/03/27 00:53:43;;;;;;;22.70;11.85;;;;;;;;;;5013361;28;20551;-67
2022/03/27 00:56:09;;;;;;;21.42;10.70;;;;;;;;;;5015357;28;20562;-66
2022/03/27 00:58:34;;;;;;;24.80;11.65;;;;;;;;;;5025989;28;20231;-66
2022/03/27 01:01:26;;;;;;;23.00;12.25;;;;;;;;;;5028164;28;20186;-66
2022/03/27 01:03:54;;;;;;;21.30;11.13;;;;;;;;;;5038158;28;20384;-66
2022/03/27 01:06:43;;;;;;;24.92;11.13;;;;;;;;;;5026900;28;20273;-66
2022/03/27 01:12:26;;;;;;;22.42;10.52;;;;;;;;;;5016564;28;20214;-65
2022/03/27 01:14:53;;;;;;;17.75;9.07;;;;;;;;;;5031013;28;20224;-67
2022/03/27 01:17:21;;;;;;;20.08;9.23;;;;;;;;;;5035823;28;20229;-64
2022/03/27 01:19:51;;;;;;;16.77;8.70;;;;;;;;;;5033373;28;20673;-66
2022/03/27 01:22:17;;;;;;;14.50;8.63;;;;;;;;;;5035941;28;20189;-66
2022/03/27 01:24:44;;;;;;;18.05;8.80;;;;;;;;;;5027060;28;20181;-66
2022/03/27 01:27:09;;;;;;;18.48;9.27;;;;;;;;;;5030122;28;20293;-66
2022/03/27 01:29:35;;;;;;;13.80;7.85;;;;;;;;;;5027365;28;20299;-66
2022/03/27 01:32:04;;;;;;;14.65;8.68;;;;;;;;;;5033592;28;20296;-67
2022/03/27 01:34:30;;;;;;;14.07;7.97;;;;;;;;;;5028974;28;20569;-67
2022/03/27 01:36:56;;;;;;;17.92;9.50;;;;;;;;;;5012383;28;20210;-67
2022/03/27 01:39:21;;;;;;;18.27;8.27;;;;;;;;;;5022068;28;20206;-66
2022/03/27 01:41:47;;;;;;;14.65;8.65;;;;;;;;;;5027262;28;20269;-67
2022/03/27 01:44:15;;;;;;;12.20;8.00;;;;;;;;;;5038640;28;20496;-67
2022/03/27 01:46:42;;;;;;;15.20;8.23;;;;;;;;;;5032464;28;20606;-67
2022/03/27 01:49:11;;;;;;;12.17;7.73;;;;;;;;;;5023828;28;20186;-66
2022/03/27 01:51:38;;;;;;;18.37;8.60;;;;;;;;;;5026111;28;20186;-67
2022/03/27 01:54:04;;;;;;;13.93;7.67;;;;;;;;;;5037435;28;20291;-66
2022/03/27 01:56:30;;;;;;;13.27;7.70;;;;;;;;;;5027093;28;20183;-66
2022/03/27 01:58:55;;;;;;;14.70;8.70;;;;;;;;;;5034533;28;20181;-66
2022/03/27 02:01:21;;;;;;;15.53;8.63;;;;;;;;;;5026431;28;20187;-67
2022/03/27 02:03:47;;;;;;;17.43;9.00;;;;;;;;;;5034812;28;20197;-66
2022/03/27 02:06:13;;;;;;;14.17;8.13;;;;;;;;;;5033756;28;20214;-67
2022/03/27 02:08:39;;;;;;;15.73;8.70;;;;;;;;;;5037667;28;20630;-67
2022/03/27 02:11:06;;;;;;;15.80;9.00;;;;;;;;;;5025175;28;20190;-66
2022/03/27 02:13:31;;;;;;;18.77;9.20;;;;;;;;;;5012475;28;20186;-66
2022/03/27 02:15:58;;;;;;;17.30;8.93;;;;;;;;;;5027427;28;20231;-66
2022/03/27 02:18:28;;;;;;;18.73;9.77;;;;;;;;;;5025027;28;20216;-66
2022/03/27 02:20:54;;;;;;;17.57;9.23;;;;;;;;;;5028527;28;20713;-66
2022/03/27 02:23:21;;;;;;;15.93;9.00;;;;;;;;;;5029989;28;20190;-66
2022/03/27 02:25:47;;;;;;;15.83;9.47;;;;;;;;;;5027211;28;20832;-66
2022/03/27 02:28:12;;;;;;;16.50;9.37;;;;;;;;;;5031417;28;20241;-66
2022/03/27 02:30:38;;;;;;;17.23;8.43;;;;;;;;;;5028900;28;20304;-66
2022/03/27 02:33:03;;;;;;;16.30;8.80;;;;;;;;;;5034718;28;20264;-66
2022/03/27 02:35:28;;;;;;;19.23;9.90;;;;;;;;;;5044409;28;20188;-66
2022/03/27 02:37:54;;;;;;;17.40;8.83;;;;;;;;;;5026401;28;20178;-66
2022/03/27 02:40:19;;;;;;;15.10;8.77;;;;;;;;;;5024279;28;20220;-66
2022/03/27 02:42:45;;;;;;;16.33;9.40;;;;;;;;;;5020414;28;20236;-66
2022/03/27 02:45:10;;;;;;;15.87;8.30;;;;;;;;;;5023260;28;20186;-67
2022/03/27 02:47:36;;;;;;;17.87;9.47;;;;;;;;;;5027753;28;20509;-66
2022/03/27 02:50:04;;;;;;;17.43;9.80;;;;;;;;;;5030764;28;20740;-67
2022/03/27 02:52:30;;;;;;;15.33;8.50;;;;;;;;;;5022847;28;20570;-67
2022/03/27 02:54:55;;;;;;;20.73;9.93;;;;;;;;;;5021385;28;20182;-65
2022/03/27 02:57:21;;;;;;;19.73;9.40;;;;;;;;;;5023373;28;20186;-66
2022/03/27 02:59:46;;;;;;;17.80;9.43;;;;;;;;;;5030773;28;20219;-67
2022/03/27 03:02:12;;;;;;;19.33;9.50;;;;;;;;;;5023636;28;20186;-66
2022/03/27 03:04:37;;;;;;;21.03;9.40;;;;;;;;;;5030028;28;20240;-67
2022/03/27 03:07:03;;;;;;;18.93;9.63;;;;;;;;;;5030417;28;20209;-67
2022/03/27 03:09:28;;;;;;;18.23;9.47;;;;;;;;;;5027217;28;20645;-68
2022/03/27 03:11:54;;;;;;;20.60;9.13;;;;;;;;;;5033309;28;20198;-66
2022/03/27 03:14:19;;;;;;;17.63;9.47;;;;;;;;;;5018145;28;20196;-66
2022/03/27 03:16:49;;;;;;;19.17;9.57;;;;;;;;;;5025750;28;20186;-67
2022/03/27 03:19:15;;;;;;;22.17;9.57;;;;;;;;;;5040631;28;20342;-66
2022/03/27 03:21:41;;;;;;;20.80;9.77;;;;;;;;;;5022831;28;20190;-66
2022/03/27 03:24:07;;;;;;;21.50;10.43;;;;;;;;;;5033316;28;20732;-66
2022/03/27 03:26:33;;;;;;;19.50;9.70;;;;;;;;;;5024403;28;20194;-66
2022/03/27 03:28:58;;;;;;;21.03;9.70;;;;;;;;;;5029049;28;20215;-66
2022/03/27 03:31:24;;;;;;;19.63;9.63;;;;;;;;;;5022776;28;20218;-66
2022/03/27 03:33:49;;;;;;;19.43;10.40;;;;;;;;;;5022967;28;20527;-66
2022/03/27 03:36:15;;;;;;;22.47;10.17;;;;;;;;;;5024317;28;20190;-66
2022/03/27 03:38:41;;;;;;;21.90;10.53;;;;;;;;;;5014511;28;20212;-65
2022/03/27 03:41:06;;;;;;;20.10;10.40;;;;;;;;;;5021749;28;20190;-65
2022/03/27 03:43:32;;;;;;;19.83;9.97;;;;;;;;;;5013397;28;20200;-66
2022/03/27 03:45:58;;;;;;;19.37;9.73;;;;;;;;;;5025217;28;20364;-66
2022/03/27 03:48:23;;;;;;;20.67;10.50;;;;;;;;;;5037257;28;20235;-66
2022/03/27 03:50:48;;;;;;;22.30;10.33;;;;;;;;;;5045559;28;20201;-66
2022/03/27 03:53:14;;;;;;;21.10;9.50;;;;;;;;;;5016945;28;20194;-66
2022/03/27 03:55:39;;;;;;;22.80;9.70;;;;;;;;;;5041212;28;20586;-67
2022/03/27 03:58:05;;;;;;;18.33;9.60;;;;;;;;;;5025172;28;20206;-67
2022/03/27 04:00:31;;;;;;;17.03;9.27;;;;;;;;;;5013283;28;20575;-67
2022/03/27 04:02:56;;;;;;;22.20;9.03;;;;;;;;;;5019167;28;20193;-67
2022/03/27 04:05:22;;;;;;;18.20;9.00;;;;;;;;;;5021973;28;20190;-66
2022/03/27 04:07:47;;;;;;;15.80;8.87;;;;;;;;;;5020772;28;20203;-67
2022/03/27 04:10:15;;;;;;;18.30;9.63;;;;;;;;;;5031783;28;20189;-67
2022/03/27 04:12:40;;;;;;;18.40;9.07;;;;;;;;;;5033842;28;20204;-67
2022/03/27 04:15:06;;;;;;;20.53;9.83;;;;;;;;;;5025082;28;20316;-66
2022/03/27 04:17:31;;;;;;;20.60;9.77;;;;;;;;;;5021555;28;20535;-66
2022/03/27 04:19:56;;;;;;;21.80;8.83;;;;;;;;;;5029636;28;20217;-66
2022/03/27 04:22:22;;;;;;;17.63;9.00;;;;;;;;;;5024618;28;20210;-66
2022/03/27 04:24:47;;;;;;;18.10;8.07;;;;;;;;;;5038083;28;20324;-67
2022/03/27 04:27:12;;;;;;;18.53;8.40;;;;;;;;;;5033862;28;20210;-67
2022/03/27 04:29:38;;;;;;;16.87;9.07;;;;;;;;;;5025595;28;20278;-67
2022/03/27 04:32:03;;;;;;;18.13;9.00;;;;;;;;;;5029511;28;20216;-67
2022/03/27 04:34:29;;;;;;;17.07;8.17;;;;;;;;;;5041813;28;20188;-67
2022/03/27 04:36:54;;;;;;;19.47;8.80;;;;;;;;;;5021608;28;20186;-66
2022/03/27 04:39:20;;;;;;;15.27;8.80;;;;;;;;;;5041500;28;20192;-67
2022/03/27 04:41:46;;;;;;;15.63;7.97;;;;;;;;;;5036373;28;20193;-67
2022/03/27 04:44:12;;;;;;;17.23;8.10;;;;;;;;;;5033129;28;20201;-66
2022/03/27 04:46:37;;;;;;;17.43;8.07;;;;;;;;;;5034788;28;20212;-67
2022/03/27 04:49:03;;;;;;;19.37;8.60;;;;;;;;;;5038559;28;20747;-66
2022/03/27 04:51:28;;;;;;;20.37;9.23;;;;;;;;;;5040564;28;20200;-66
2022/03/27 04:53:54;;;;;;;17.70;8.57;;;;;;;;;;5040147;28;20192;-67
2022/03/27 04:56:19;;;;;;;17.07;8.47;;;;;;;;;;5040823;28;20189;-67
2022/03/27 04:58:45;;;;;;;19.10;9.10;;;;;;;;;;5034239;28;20634;-67
2022/03/27 05:01:10;;;;;;;18.77;8.90;;;;;;;;;;5034948;28;20185;-67
2022/03/27 05:03:36;;;;;;;17.20;8.27;;;;;;;;;;5030041;28;20269;-67
2022/03/27 05:06:02;;;;;;;19.30;9.90;;;;;;;;;;5031393;28;20177;-67
2022/03/27 05:08:28;;;;;;;19.00;9.53;;;;;;;;;;5035732;28;20206;-67
2022/03/27 05:10:53;;;;;;;19.23;9.40;;;;;;;;;;5040986;28;20181;-67
2022/03/27 05:13:19;;;;;;;17.87;8.60;;;;;;;;;;5039331;28;20721;-66
2022/03/27 05:15:45;;;;;;;19.50;8.37;;;;;;;;;;5045188;28;20234;-65
2022/03/27 05:18:10;;;;;;;19.37;9.10;;;;;;;;;;5033805;28;20186;-66
2022/03/27 05:20:39;;;;;;;18.50;9.77;;;;;;;;;;5041551;28;20213;-66
2022/03/27 05:23:05;;;;;;;20.20;9.70;;;;;;;;;;5037534;28;20185;-68
2022/03/27 05:25:38;;;;;;;18.90;8.73;;;;;;;;;;5035400;28;20620;-67
2022/03/27 05:28:04;;;;;;;18.37;9.57;;;;;;;;;;5030347;28;20589;-68
2022/03/27 05:30:31;;;;;;;20.47;10.30;;;;;;;;;;5044745;28;20197;-67
2022/03/27 05:32:56;;;;;;;19.43;9.50;;;;;;;;;;5036400;28;20220;-67
2022/03/27 05:35:22;;;;;;;22.63;10.07;;;;;;;;;;5041574;28;20213;-66
2022/03/27 05:37:49;;;;;;;18.53;9.27;;;;;;;;;;5036277;28;20182;-66
2022/03/27 05:40:18;;;;;;;21.33;10.00;;;;;;;;;;5041084;28;20673;-66
2022/03/27 05:42:44;;;;;;;24.67;11.70;;;;;;;;;;5036768;28;20193;-66
2022/03/27 05:45:10;;;;;;;24.83;11.70;;;;;;;;;;5042089;28;20610;-67
2022/03/27 05:47:37;;;;;;;24.20;10.57;;;;;;;;;;5038518;28;20255;-67
2022/03/27 05:50:04;;;;;;;29.17;12.17;;;;;;;;;;5044066;28;20213;-68
2022/03/27 05:52:29;;;;;;;28.80;12.50;;;;;;;;;;5041619;28;20192;-66
2022/03/27 05:54:56;;;;;;;29.37;12.77;;;;;;;;;;5038390;28;20197;-65
2022/03/27 05:57:22;;;;;;;32.60;12.37;;;;;;;;;;5038695;28;20178;-66
2022/03/27 05:59:48;;;;;;;23.27;11.77;;;;;;;;;;5038958;28;20200;-66
2022/03/27 06:02:14;;;;;;;33.80;12.83;;;;;;;;;;5039231;28;20182;-66
2022/03/27 06:04:40;;;;;;;28.70;12.20;;;;;;;;;;5038812;28;20563;-67
2022/03/27 06:07:06;;;;;;;32.37;12.67;;;;;;;;;;5034257;28;20726;-66
2022/03/27 06:09:33;;;;;;;26.13;12.57;;;;;;;;;;5042193;28;20327;-66
2022/03/27 06:11:58;;;;;;;30.47;12.10;;;;;;;;;;5046128;28;20683;-66
2022/03/27 06:14:23;;;;;;;28.43;13.03;;;;;;;;;;5035767;28;20185;-66
2022/03/27 06:16:49;;;;;;;27.97;12.07;;;;;;;;;;5041523;28;20717;-67
2022/03/27 06:19:14;;;;;;;29.53;11.83;;;;;;;;;;5039725;28;20615;-66
2022/03/27 06:21:39;;;;;;;31.93;10.03;;;;;;;;;;5036089;28;20189;-66
2022/03/27 06:24:05;;;;;;;26.77;10.43;;;;;;;;;;5039317;28;20188;-66
2022/03/27 06:26:30;;;;;;;30.42;11.25;;;;;;;;;;5031451;28;20216;-66
2022/03/27 06:28:56;;;;;;;27.77;11.70;;;;;;;;;;5033421;28;20629;-65
2022/03/27 06:31:22;;;;;;;24.80;10.40;;;;;;;;;;5039007;28;20204;-67
2022/03/27 06:33:47;;;;;;;25.40;10.83;;;;;;;;;;5043157;28;20267;-67
2022/03/27 06:36:13;;;;;;;27.13;9.70;;;;;;;;;;5042096;28;20264;-67
2022/03/27 06:38:38;;;;;;;32.53;10.67;;;;;;;;;;5045319;28;20173;-67
2022/03/27 06:41:04;;;;;;;30.07;10.53;;;;;;;;;;5030562;28;20658;-67
2022/03/27 06:43:29;;;;;;;27.43;9.60;;;;;;;;;;5041062;28;20416;-67
2022/03/27 06:45:55;;;;;;;33.07;10.83;;;;;;;;;;5040959;28;20598;-67
2022/03/27 06:48:20;;;;;;;22.27;8.97;;;;;;;;;;5028402;28;20202;-67
2022/03/27 06:50:45;;;;;;;32.00;10.27;;;;;;;;;;5028148;28;20190;-67
2022/03/27 06:53:14;;;;;;;30.40;9.90;;;;;;;;;;5026458;28;20268;-65
2022/03/27 06:55:41;;;;;;;22.33;9.70;;;;;;;;;;5025173;28;20190;-66
2022/03/27 06:58:06;;;;;;;25.67;9.80;;;;;;;;;;5032374;28;20192;-67
2022/03/27 07:03:20;;;;;;;23.50;9.60;;;;;;;;;;5054946;28;20271;-66
2022/03/27 07:05:46;;;;;;;23.13;10.00;;;;;;;;;;5035896;28;20185;-66
2022/03/27 07:08:13;;;;;;;28.70;10.20;;;;;;;;;;5039489;28;20214;-66
2022/03/27 07:10:41;;;;;;;23.47;10.27;;;;;;;;;;5042552;28;20193;-66
2022/03/27 07:13:10;;;;;;;24.27;9.20;;;;;;;;;;5037357;28;20609;-66
2022/03/27 07:15:39;;;;;;;27.67;9.97;;;;;;;;;;5043891;28;20772;-66
2022/03/27 07:18:05;;;;;;;22.80;9.63;;;;;;;;;;5038348;28;20243;-67
2022/03/27 07:20:33;;;;;;;22.83;9.63;;;;;;;;;;5039275;28;20246;-67
2022/03/27 07:23:01;;;;;;;23.13;9.87;;;;;;;;;;5040727;28;20198;-66
2022/03/27 07:25:28;;;;;;;27.13;10.83;;;;;;;;;;5040562;28;20211;-65
2022/03/27 07:27:54;;;;;;;24.10;10.73;;;;;;;;;;5032155;28;20202;-66
2022/03/27 07:30:19;;;;;;;28.40;11.10;;;;;;;;;;5034402;28;20479;-66
2022/03/27 07:32:45;;;;;;;22.20;9.53;;;;;;;;;;5034649;28;20190;-67
2022/03/27 07:35:14;;;;;;;24.50;10.93;;;;;;;;;;5034955;28;20189;-68
2022/03/27 07:37:41;;;;;;;27.03;10.43;;;;;;;;;;5041545;28;20215;-66
2022/03/27 07:40:08;;;;;;;24.83;9.73;;;;;;;;;;5038281;28;20268;-66
2022/03/27 07:42:49;;;;;;;23.13;9.87;;;;;;;;;;5036638;28;20196;-66
2022/03/27 07:45:19;;;;;;;22.63;9.33;;;;;;;;;;5039068;28;20189;-68
2022/03/27 07:47:45;;;;;;;22.97;9.10;;;;;;;;;;5045164;28;20286;-67
2022/03/27 07:50:11;;;;;;;26.10;9.20;;;;;;;;;;5038828;28;20201;-70
2022/03/27 07:52:38;;;;;;;16.27;8.83;;;;;;;;;;5047374;28;20331;-66
2022/03/27 07:55:04;;;;;;;22.30;9.27;;;;;;;;;;5042109;28;20181;-66
2022/03/27 07:57:30;;;;;;;17.77;8.87;;;;;;;;;;5048577;28;20184;-72
2022/03/27 07:59:56;;;;;;;22.30;9.53;;;;;;;;;;5039391;28;20185;-67
2022/03/27 08:02:21;;;;;;;24.50;9.63;;;;;;;;;;5039050;28;20568;-66
2022/03/27 08:04:47;;;;;;;22.90;9.37;;;;;;;;;;5025704;28;20186;-66
2022/03/27 08:07:13;;;;;;;22.47;9.20;;;;;;;;;;5027317;28;20206;-66
2022/03/27 08:09:39;;;;;;;23.77;9.17;;;;;;;;;;5029675;28;20194;-66
2022/03/27 08:12:07;;;;;;;26.87;9.17;;;;;;;;;;5034933;28;20186;-66
2022/03/27 08:14:33;;;;;;;22.70;9.13;;;;;;;;;;5027863;28;20182;-67
2022/03/27 08:16:59;;;;;;;23.40;9.13;;;;;;;;;;5041700;28;20235;-66
2022/03/27 08:19:25;;;;;;;20.87;8.83;;;;;;;;;;5024088;28;20191;-66
2022/03/27 08:21:50;;;;;;;24.23;8.90;;;;;;;;;;5038134;28;20185;-66
2022/03/27 08:24:16;;;;;;;19.33;8.87;;;;;;;;;;5039451;28;20610;-66
2022/03/27 08:26:56;;;;;;;22.47;8.83;;;;;;;;;;5043842;28;20197;-67
2022/03/27 08:29:29;;;;;;;21.57;7.97;;;;;;;;;;5034467;28;20773;-67
2022/03/27 08:31:54;;;;;;;18.13;8.70;;;;;;;;;;5044690;28;20347;-67
2022/03/27 08:34:21;;;;;;;21.00;8.40;;;;;;;;;;5042314;28;20239;-67
2022/03/27 08:36:47;;;;;;;21.77;7.97;;;;;;;;;;5040662;28;20201;-67
2022/03/27 08:39:13;;;;;;;20.73;8.53;;;;;;;;;;5035452;28;20197;-67
2022/03/27 08:41:43;;;;;;;22.10;7.77;;;;;;;;;;5041172;28;20192;-67
2022/03/27 08:44:14;;;;;;;27.05;8.55;;;;;;;;;;5033280;28;20181;-66
2022/03/27 08:46:41;;;;;;;27.53;8.87;;;;;;;;;;5042053;28;20551;-66
2022/03/27 08:49:19;;;;;;;22.70;7.67;;;;;;;;;;5042023;28;20212;-66
2022/03/27 08:51:57;;;;;;;18.85;7.70;;;;;;;;;;5038461;28;20204;-66
2022/03/27 08:54:25;;;;;;;22.93;8.00;;;;;;;;;;5040084;28;20689;-66
2022/03/27 08:57:03;;;;;;;21.25;7.93;;;;;;;;;;5042097;28;20196;-66
2022/03/27 08:59:30;;;;;;;19.02;7.68;;;;;;;;;;5040419;28;20201;-68
2022/03/27 09:01:56;;;;;;;22.83;7.50;;;;;;;;;;5046456;28;20596;-66
2022/03/27 09:04:21;;;;;;;16.47;7.47;;;;;;;;;;5034319;28;20280;-66
2022/03/27 09:06:47;;;;;;;20.67;7.97;;;;;;;;;;5039796;28;20265;-66
2022/03/27 09:09:12;;;;;;;19.20;7.83;;;;;;;;;;5042159;28;20209;-67
2022/03/27 09:11:38;;;;;;;21.10;7.75;;;;;;;;;;5041488;28;20673;-66
2022/03/27 09:14:04;;;;;;;18.57;7.60;;;;;;;;;;5042509;28;20640;-66
2022/03/27 09:16:30;;;;;;;18.63;7.10;;;;;;;;;;5040426;28;20229;-66
2022/03/27 09:19:01;;;;;;;17.30;7.67;;;;;;;;;;5043463;28;20265;-66
2022/03/27 09:21:27;;;;;;;21.38;7.70;;;;;;;;;;5040160;28;20268;-66
2022/03/27 09:23:58;;;;;;;21.40;8.30;;;;;;;;;;5041069;28;20208;-66
2022/03/27 09:26:24;;;;;;;20.48;7.82;;;;;;;;;;5040410;28;20177;-66
2022/03/27 09:28:55;;;;;;;24.30;8.20;;;;;;;;;;5044141;28;20205;-66
2022/03/27 09:31:21;;;;;;;20.52;7.85;;;;;;;;;;5046000;28;20205;-66
2022/03/27 09:33:57;;;;;;;17.45;7.63;;;;;;;;;;5038961;28;20295;-66
2022/03/27 09:36:40;;;;;;;22.10;8.38;;;;;;;;;;5042801;28;20193;-66
2022/03/27 09:39:17;;;;;;;30.15;8.57;;;;;;;;;;5043918;28;20235;-66
2022/03/27 09:41:48;;;;;;;22.73;8.25;;;;;;;;;;5042306;28;20629;-66
2022/03/27 09:44:17;;;;;;;21.80;8.30;;;;;;;;;;5042854;28;20177;-66
2022/03/27 09:47:01;;;;;;;21.38;8.93;;;;;;;;;;5041713;28;20542;-66
2022/03/27 09:49:35;;;;;;;20.05;7.85;;;;;;;;;;5042475;28;20190;-66
2022/03/27 09:52:05;;;;;;;17.00;7.68;;;;;;;;;;5041408;28;20608;-66
2022/03/27 09:54:43;;;;;;;19.40;7.93;;;;;;;;;;5040749;28;20637;-67
2022/03/27 09:57:35;;;;;;;16.20;7.65;;;;;;;;;;5040202;28;20186;-67
2022/03/27 10:00:19;;;;;;;15.48;7.38;;;;;;;;;;5037496;28;20266;-66
2022/03/27 10:02:49;;;;;;;21.98;7.38;;;;;;;;;;5040853;28;20694;-67
2022/03/27 10:05:19;;;;;;;17.55;7.40;;;;;;;;;;5041110;28;20182;-66
2022/03/27 10:07:52;;;;;;;17.13;7.53;;;;;;;;;;5040735;28;20529;-66
2022/03/27 10:10:22;;;;;;;17.45;7.50;;;;;;;;;;5036274;28;20182;-67
2022/03/27 10:12:49;;;;;;;20.77;8.48;;;;;;;;;;5039238;28;20202;-66
2022/03/27 10:15:24;;;;;;;23.15;7.90;;;;;;;;;;5039850;28;20724;-66
2022/03/27 10:17:56;;;;;;;20.50;7.85;;;;;;;;;;5038952;28;20169;-66
2022/03/27 10:20:27;;;;;;;19.13;7.60;;;;;;;;;;5038525;28;20197;-66
2022/03/27 10:22:57;;;;;;;19.15;7.22;;;;;;;;;;5035552;28;20705;-66
2022/03/27 10:25:28;;;;;;;18.10;7.28;;;;;;;;;;5035690;28;20192;-67
2022/03/27 10:27:54;;;;;;;17.52;7.93;;;;;;;;;;5041344;28;20190;-67
2022/03/27 10:30:19;;;;;;;11.02;6.25;;;;;;;;;;5035606;28;20234;-67
2022/03/27 10:32:45;;;;;;;12.73;6.47;;;;;;;;;;5038455;28;20177;-67
2022/03/27 10:35:46;;;;;;;16.60;7.15;;;;;;;;;;5037347;28;20188;-67
2022/03/27 10:38:19;;;;;;;17.77;6.78;;;;;;;;;;5036278;28;20641;-67
2022/03/27 10:40:58;;;;;;;17.00;7.10;;;;;;;;;;5022276;28;20190;-67
2022/03/27 10:43:44;;;;;;;15.68;6.63;;;;;;;;;;5038833;28;20186;-67
2022/03/27 10:46:22;;;;;;;16.77;7.03;;;;;;;;;;5028378;28;20615;-67
2022/03/27 10:48:49;;;;;;;12.77;6.38;;;;;;;;;;5037698;28;20821;-67
2022/03/27 10:51:24;;;;;;;17.95;6.97;;;;;;;;;;5033144;28;20273;-67
2022/03/27 10:54:11;;;;;;;12.65;6.68;;;;;;;;;;5041000;28;20185;-66
2022/03/27 10:56:41;;;;;;;15.80;6.35;;;;;;;;;;5038075;28;20721;-67
2022/03/27 10:59:12;;;;;;;17.10;6.10;;;;;;;;;;5035541;28;20188;-67
2022/03/27 11:01:40;;;;;;;21.98;6.28;;;;;;;;;;5043099;28;20205;-67
2022/03/27 11:04:16;;;;;;;17.65;6.85;;;;;;;;;;5038371;28;20524;-67
2022/03/27 11:06:49;;;;;;;17.48;6.53;;;;;;;;;;5032734;28;20174;-68
2022/03/27 11:09:35;;;;;;;19.95;6.68;;;;;;;;;;5038050;28;20524;-67
2022/03/27 11:12:07;;;;;;;23.25;8.27;;;;;;;;;;5041007;28;20188;-67
2022/03/27 11:15:04;;;;;;;17.27;6.15;;;;;;;;;;5037474;28;20338;-68
2022/03/27 11:17:30;;;;;;;21.25;6.43;;;;;;;;;;5042549;28;20177;-68
2022/03/27 11:19:55;;;;;;;14.75;6.05;;;;;;;;;;5045244;28;20250;-67
2022/03/27 11:22:51;;;;;;;17.48;6.60;;;;;;;;;;5042265;28;20189;-67
2022/03/27 11:25:23;;;;;;;17.73;5.72;;;;;;;;;;5040482;28;20181;-67
2022/03/27 11:27:57;;;;;;;13.48;6.07;;;;;;;;;;5042456;28;20206;-67
2022/03/27 11:30:23;;;;;;;19.58;6.35;;;;;;;;;;5041196;28;20197;-67
2022/03/27 11:33:22;;;;;;;15.43;5.90;;;;;;;;;;5043579;28;20191;-67
2022/03/27 11:36:09;;;;;;;23.70;7.22;;;;;;;;;;5043105;28;20272;-67
2022/03/27 11:38:55;;;;;;;19.27;6.07;;;;;;;;;;5045723;28;20184;-66
2022/03/27 11:41:30;;;;;;;14.02;6.05;;;;;;;;;;5044272;28;20213;-68
2022/03/27 11:44:17;;;;;;;15.93;5.72;;;;;;;;;;5045513;28;20187;-67
2022/03/27 11:46:54;;;;;;;18.38;5.97;;;;;;;;;;5043825;28;20483;-67
2022/03/27 11:49:22;;;;;;;14.80;5.40;;;;;;;;;;5044166;28;20234;-67
2022/03/27 11:52:02;;;;;;;13.05;5.20;;;;;;;;;;5037172;28;20194;-67
2022/03/27 11:54:28;;;;;;;18.88;6.13;;;;;;;;;;5042379;28;20177;-67
2022/03/27 11:56:55;;;;;;;18.00;5.53;;;;;;;;;;5041370;28;20595;-67
2022/03/27 11:59:22;;;;;;;14.73;5.45;;;;;;;;;;5042970;28;20647;-67
2022/03/27 12:01:51;;;;;;;18.42;5.88;;;;;;;;;;5042158;28;20186;-67
2022/03/27 12:04:18;;;;;;;18.80;6.57;;;;;;;;;;5041061;28;20880;-67
2022/03/27 12:06:44;;;;;;;12.85;5.72;;;;;;;;;;5040415;28;20235;-68
2022/03/27 12:09:26;;;;;;;22.27;6.35;;;;;;;;;;5041484;28;20209;-67
2022/03/27 12:12:11;;;;;;;19.20;6.10;;;;;;;;;;5043976;28;20178;-67
2022/03/27 12:15:09;;;;;;;18.17;5.45;;;;;;;;;;5041762;28;20205;-67
2022/03/27 12:17:45;;;;;;;18.67;5.28;;;;;;;;;;5020435;28;20189;-68
2022/03/27 12:20:12;;;;;;;17.58;5.53;;;;;;;;;;5040625;28;20818;-67
2022/03/27 12:22:51;;;;;;;17.00;5.85;;;;;;;;;;5033228;28;20688;-67
2022/03/27 12:25:30;;;;;;;19.35;6.35;;;;;;;;;;5035838;28;20223;-68
2022/03/27 12:30:50;;;;;;;15.43;5.65;;;;;;;;;;5027876;28;20571;-67
2022/03/27 12:33:20;;;;;;;17.38;5.30;;;;;;;;;;5032477;28;20181;-67
2022/03/27 12:35:47;;;;;;;16.63;5.82;;;;;;;;;;5025853;28;20329;-67
2022/03/27 12:38:13;;;;;;;17.70;5.93;;;;;;;;;;5028957;28;20204;-67
2022/03/27 12:40:44;;;;;;;20.55;6.32;;;;;;;;;;5037400;28;20182;-67
2022/03/27 12:43:14;;;;;;;19.45;5.35;;;;;;;;;;5042574;28;20188;-67
2022/03/27 12:45:41;;;;;;;18.30;5.43;;;;;;;;;;5031264;28;20319;-67
2022/03/27 12:48:16;;;;;;;18.55;5.68;;;;;;;;;;5029808;28;20583;-68
2022/03/27 12:50:53;;;;;;;20.77;5.70;;;;;;;;;;5021356;28;20265;-67
2022/03/27 12:53:18;;;;;;;16.25;5.13;;;;;;;;;;5039726;28;20220;-67
2022/03/27 12:55:51;;;;;;;18.23;5.85;;;;;;;;;;5021625;28;20293;-68
2022/03/27 12:58:18;;;;;;;24.70;6.18;;;;;;;;;;5037174;28;20201;-67
2022/03/27 13:00:45;;;;;;;17.88;6.18;;;;;;;;;;5031618;28;20482;-66
2022/03/27 13:03:13;;;;;;;19.55;6.47;;;;;;;;;;5032129;28;20178;-67
2022/03/27 13:05:40;;;;;;;21.10;6.38;;;;;;;;;;5021629;28;20213;-67
2022/03/27 13:08:06;;;;;;;26.27;6.35;;;;;;;;;;5025188;28;20201;-67
2022/03/27 13:10:33;;;;;;;23.25;6.28;;;;;;;;;;5031693;28;20235;-67
2022/03/27 13:13:06;;;;;;;23.17;6.63;;;;;;;;;;5022665;28;20206;-66
2022/03/27 13:15:50;;;;;;;16.92;5.78;;;;;;;;;;5022360;28;20696;-68
2022/03/27 13:18:17;;;;;;;20.55;6.18;;;;;;;;;;5019821;28;20233;-67
2022/03/27 13:20:45;;;;;;;21.05;6.25;;;;;;;;;;5023048;28;20198;-67
2022/03/27 13:23:10;;;;;;;23.35;5.90;;;;;;;;;;5023983;28;20835;-67
2022/03/27 13:25:37;;;;;;;19.33;5.63;;;;;;;;;;5022591;28;20276;-66
2022/03/27 13:28:04;;;;;;;21.45;6.60;;;;;;;;;;5025095;28;20214;-66
2022/03/27 13:30:30;;;;;;;19.08;5.90;;;;;;;;;;5024116;28;20209;-67
2022/03/27 13:32:57;;;;;;;19.73;5.72;;;;;;;;;;5032561;28;20209;-67
2022/03/27 13:35:22;;;;;;;18.13;5.88;;;;;;;;;;5044033;28;20641;-67
2022/03/27 13:37:48;;;;;;;24.52;6.28;;;;;;;;;;5038091;28;20351;-67
2022/03/27 13:40:13;;;;;;;16.30;5.80;;;;;;;;;;5035261;28;20177;-67
2022/03/27 13:45:23;;;;;;;22.92;5.95;;;;;;;;;;5032989;28;20207;-67
2022/03/27 13:47:48;;;;;;;24.00;6.45;;;;;;;;;;5041795;28;20201;-67
2022/03/27 13:50:13;;;;;;;22.48;6.03;;;;;;;;;;5040258;28;20243;-68
2022/03/27 13:52:39;;;;;;;22.58;6.05;;;;;;;;;;5032010;28;20575;-66
2022/03/27 13:55:05;;;;;;;19.63;6.03;;;;;;;;;;5034771;28;20174;-66
2022/03/27 13:57:31;;;;;;;21.30;5.65;;;;;;;;;;5039369;28;20174;-66
2022/03/27 13:59:56;;;;;;;20.92;6.38;;;;;;;;;;5043000;28;20515;-67
2022/03/27 14:02:22;;;;;;;22.15;6.32;;;;;;;;;;5036515;28;20363;-66
2022/03/27 14:04:57;;;;;;;22.40;6.30;;;;;;;;;;5040557;28;20587;-66
2022/03/27 14:07:23;;;;;;;22.15;5.90;;;;;;;;;;5039534;28;20240;-66
2022/03/27 14:09:48;;;;;;;20.15;6.38;;;;;;;;;;5040660;28;20193;-67
2022/03/27 14:12:13;;;;;;;20.17;5.85;;;;;;;;;;5040343;28;20599;-66
2022/03/27 14:14:39;;;;;;;21.80;5.97;;;;;;;;;;5040628;28;20176;-67
2022/03/27 14:17:04;;;;;;;18.85;5.78;;;;;;;;;;5037877;28;20209;-67
2022/03/27 14:19:29;;;;;;;20.63;6.05;;;;;;;;;;5039398;28;20195;-66
2022/03/27 14:21:56;;;;;;;21.90;5.35;;;;;;;;;;5040112;28;20227;-67
2022/03/27 14:24:22;;;;;;;23.05;6.38;;;;;;;;;;5040455;28;20760;-66
2022/03/27 14:26:47;;;;;;;20.25;6.05;;;;;;;;;;5040737;28;20639;-67
2022/03/27 14:29:13;;;;;;;23.40;5.95;;;;;;;;;;5037898;28;20185;-68
2022/03/27 14:31:39;;;;;;;23.95;5.82;;;;;;;;;;5040108;28;20206;-66
2022/03/27 14:34:05;;;;;;;22.83;5.30;;;;;;;;;;5040632;28;20213;-66
2022/03/27 14:36:30;;;;;;;17.67;5.22;;;;;;;;;;5040069;28;20597;-66
2022/03/27 14:38:56;;;;;;;20.45;4.95;;;;;;;;;;5041017;28;20190;-67
2022/03/27 14:41:21;;;;;;;18.17;5.50;;;;;;;;;;5039387;28;20297;-67
2022/03/27 14:43:46;;;;;;;19.90;5.47;;;;;;;;;;5039615;28;20309;-67
2022/03/27 14:46:13;;;;;;;16.17;4.68;;;;;;;;;;5040449;28;20479;-67